sensor_id;sensor_type;location;lat;lon;timestamp;temperature;humidity
67901;DHT22;54700;51.796;10.956;2023-03-01T00:02:22;-2.50;94.90
67901;DHT22;54700;51.796;10.956;2023-03-01T00:04:49;-2.40;94.90
67901;DHT22;54700;51.796;10.956;2023-03-01T00:07:16;-2.40;94.60
67901;DHT22;54700;51.796;10.956;2023-03-01T00:09:43;-2.30;94.50
67901;DHT22;54700;51.796;10.956;2023-03-01T00:12:11;-2.30;94.30
67901;DHT22;54700;51.796;10.956;2023-03-01T00:14:38;-2.30;94.40
67901;DHT22;54700;51.796;10.956;2023-03-01T00:17:07;-2.30;94.30
67901;DHT22;54700;51.796;10.956;2023-03-01T00:19:35;-2.30;94.20
67901;DHT22;54700;51.796;10.956;2023-03-01T00:22:02;-2.30;94.30
67901;DHT22;54700;51.796;10.956;2023-03-01T00:24:29;-2.30;94.10
67901;DHT22;54700;51.796;10.956;2023-03-01T00:26:59;-2.30;94.20
67901;DHT22;54700;51.796;10.956;2023-03-01T00:29:26;-2.40;94.50
67901;DHT22;54700;51.796;10.956;2023-03-01T00:31:55;-2.40;94.80
67901;DHT22;54700;51.796;10.956;2023-03-01T00:34:24;-2.40;94.80
67901;DHT22;54700;51.796;10.956;2023-03-01T00:36:51;-2.40;94.50
67901;DHT22;54700;51.796;10.956;2023-03-01T00:39:21;-2.40;94.60
67901;DHT22;54700;51.796;10.956;2023-03-01T00:41:48;-2.40;94.70
67901;DHT22;54700;51.796;10.956;2023-03-01T00:44:15;-2.40;94.80
67901;DHT22;54700;51.796;10.956;2023-03-01T00:46:43;-2.50;95.00
67901;DHT22;54700;51.796;10.956;2023-03-01T00:49:09;-2.50;95.10
67901;DHT22;54700;51.796;10.956;2023-03-01T00:51:39;-2.50;95.10
67901;DHT22;54700;51.796;10.956;2023-03-01T00:54:07;-2.40;94.90
67901;DHT22;54700;51.796;10.956;2023-03-01T00:56:35;-2.40;94.80
67901;DHT22;54700;51.796;10.956;2023-03-01T00:59:02;-2.50;94.30
67901;DHT22;54700;51.796;10.956;2023-03-01T01:01:29;-2.40;94.60
67901;DHT22;54700;51.796;10.956;2023-03-01T01:03:58;-2.50;95.00
67901;DHT22;54700;51.796;10.956;2023-03-01T01:06:26;-2.50;94.90
67901;DHT22;54700;51.796;10.956;2023-03-01T01:08:56;-2.50;94.90
67901;DHT22;54700;51.796;10.956;2023-03-01T01:11:28;-2.60;95.30
67901;DHT22;54700;51.796;10.956;2023-03-01T01:13:56;-2.60;95.40
67901;DHT22;54700;51.796;10.956;2023-03-01T01:16:26;-2.50;95.30
67901;DHT22;54700;51.796;10.956;2023-03-01T01:18:53;-2.50;95.30
67901;DHT22;54700;51.796;10.956;2023-03-01T01:21:22;-2.50;95.30
67901;DHT22;54700;51.796;10.956;2023-03-01T01:23:50;-2.50;95.10
67901;DHT22;54700;51.796;10.956;2023-03-01T01:26:20;-2.50;94.90
67901;DHT22;54700;51.796;10.956;2023-03-01T01:28:50;-2.50;94.90
67901;DHT22;54700;51.796;10.956;2023-03-01T01:31:18;-2.50;94.90
67901;DHT22;54700;51.796;10.956;2023-03-01T01:33:47;-2.50;94.90
67901;DHT22;54700;51.796;10.956;2023-03-01T01:36:20;-2.50;94.80
67901;DHT22;54700;51.796;10.956;2023-03-01T01:38:48;-2.50;95.10
67901;DHT22;54700;51.796;10.956;2023-03-01T01:41:17;-2.50;94.80
67901;DHT22;54700;51.796;10.956;2023-03-01T01:43:47;-2.50;94.90
67901;DHT22;54700;51.796;10.956;2023-03-01T01:46:21;-2.50;95.00
67901;DHT22;54700;51.796;10.956;2023-03-01T01:48:58;-2.50;94.80
67901;DHT22;54700;51.796;10.956;2023-03-01T01:51:35;-2.50;94.70
67901;DHT22;54700;51.796;10.956;2023-03-01T01:54:14;-2.60;94.90
67901;DHT22;54700;51.796;10.956;2023-03-01T01:56:47;-2.60;95.30
67901;DHT22;54700;51.796;10.956;2023-03-01T01:59:23;-2.60;95.30
67901;DHT22;54700;51.796;10.956;2023-03-01T02:01:54;-2.70;95.30
67901;DHT22;54700;51.796;10.956;2023-03-01T02:04:21;-2.70;95.60
67901;DHT22;54700;51.796;10.956;2023-03-01T02:06:49;-2.70;95.40
67901;DHT22;54700;51.796;10.956;2023-03-01T02:09:23;-2.60;95.50
67901;DHT22;54700;51.796;10.956;2023-03-01T02:11:54;-2.60;95.40
67901;DHT22;54700;51.796;10.956;2023-03-01T02:14:21;-2.60;95.30
67901;DHT22;54700;51.796;10.956;2023-03-01T02:16:53;-2.60;94.60
67901;DHT22;54700;51.796;10.956;2023-03-01T02:19:22;-2.70;94.50
67901;DHT22;54700;51.796;10.956;2023-03-01T02:21:59;-2.70;95.10
67901;DHT22;54700;51.796;10.956;2023-03-01T02:24:34;-2.80;95.40
67901;DHT22;54700;51.796;10.956;2023-03-01T02:27:19;-2.80;95.80
67901;DHT22;54700;51.796;10.956;2023-03-01T02:29:55;-2.90;96.00
67901;DHT22;54700;51.796;10.956;2023-03-01T02:32:22;-2.90;96.10
67901;DHT22;54700;51.796;10.956;2023-03-01T02:34:50;-2.80;96.30
67901;DHT22;54700;51.796;10.956;2023-03-01T02:37:18;-2.80;96.00
67901;DHT22;54700;51.796;10.956;2023-03-01T02:39:50;-2.80;95.80
67901;DHT22;54700;51.796;10.956;2023-03-01T02:42:23;-2.90;96.30
67901;DHT22;54700;51.796;10.956;2023-03-01T02:44:58;-2.90;96.50
67901;DHT22;54700;51.796;10.956;2023-03-01T02:47:25;-2.90;96.60
67901;DHT22;54700;51.796;10.956;2023-03-01T02:49:52;-3.00;96.50
67901;DHT22;54700;51.796;10.956;2023-03-01T02:52:26;-3.00;96.40
67901;DHT22;54700;51.796;10.956;2023-03-01T02:55:00;-3.10;96.50
67901;DHT22;54700;51.796;10.956;2023-03-01T02:57:30;-3.10;96.60
67901;DHT22;54700;51.796;10.956;2023-03-01T03:00:03;-3.20;96.60
67901;DHT22;54700;51.796;10.956;2023-03-01T03:02:33;-3.20;97.40
67901;DHT22;54700;51.796;10.956;2023-03-01T03:05:05;-3.20;97.40
67901;DHT22;54700;51.796;10.956;2023-03-01T03:07:36;-3.20;97.50
67901;DHT22;54700;51.796;10.956;2023-03-01T03:10:05;-3.20;97.70
67901;DHT22;54700;51.796;10.956;2023-03-01T03:12:36;-3.10;97.70
67901;DHT22;54700;51.796;10.956;2023-03-01T03:15:06;-3.00;97.30
67901;DHT22;54700;51.796;10.956;2023-03-01T03:17:41;-3.00;96.90
67901;DHT22;54700;51.796;10.956;2023-03-01T03:20:09;-2.90;96.60
67901;DHT22;54700;51.796;10.956;2023-03-01T03:22:37;-2.90;96.70
67901;DHT22;54700;51.796;10.956;2023-03-01T03:25:06;-3.00;96.60
67901;DHT22;54700;51.796;10.956;2023-03-01T03:27:35;-2.90;96.80
67901;DHT22;54700;51.796;10.956;2023-03-01T03:30:03;-2.90;96.80
67901;DHT22;54700;51.796;10.956;2023-03-01T03:32:34;-2.90;96.90
67901;DHT22;54700;51.796;10.956;2023-03-01T03:35:06;-2.90;97.10
67901;DHT22;54700;51.796;10.956;2023-03-01T03:37:36;-2.90;96.90
67901;DHT22;54700;51.796;10.956;2023-03-01T03:40:21;-2.90;96.70
67901;DHT22;54700;51.796;10.956;2023-03-01T03:42:47;-2.90;96.60
67901;DHT22;54700;51.796;10.956;2023-03-01T03:45:18;-2.90;96.70
67901;DHT22;54700;51.796;10.956;2023-03-01T03:47:44;-2.90;96.70
67901;DHT22;54700;51.796;10.956;2023-03-01T03:50:13;-2.90;96.80
67901;DHT22;54700;51.796;10.956;2023-03-01T03:52:41;-2.90;96.80
67901;DHT22;54700;51.796;10.956;2023-03-01T03:55:09;-3.00;96.90
67901;DHT22;54700;51.796;10.956;2023-03-01T03:57:37;-3.00;97.40
67901;DHT22;54700;51.796;10.956;2023-03-01T04:00:08;-3.10;97.50
67901;DHT22;54700;51.796;10.956;2023-03-01T04:02:39;-3.10;97.40
67901;DHT22;54700;51.796;10.956;2023-03-01T04:05:08;-3.10;97.50
67901;DHT22;54700;51.796;10.956;2023-03-01T04:07:37;-3.20;97.80
67901;DHT22;54700;51.796;10.956;2023-03-01T04:10:07;-3.20;97.80
67901;DHT22;54700;51.796;10.956;2023-03-01T04:12:36;-3.20;98.30
67901;DHT22;54700;51.796;10.956;2023-03-01T04:15:03;-3.20;98.20
67901;DHT22;54700;51.796;10.956;2023-03-01T04:17:39;-3.30;98.00
67901;DHT22;54700;51.796;10.956;2023-03-01T04:20:07;-3.30;98.10
67901;DHT22;54700;51.796;10.956;2023-03-01T04:22:36;-3.30;98.50
67901;DHT22;54700;51.796;10.956;2023-03-01T04:25:03;-3.30;98.50
67901;DHT22;54700;51.796;10.956;2023-03-01T04:27:32;-3.30;98.50
67901;DHT22;54700;51.796;10.956;2023-03-01T04:29:59;-3.30;98.60
67901;DHT22;54700;51.796;10.956;2023-03-01T04:32:26;-3.20;98.60
67901;DHT22;54700;51.796;10.956;2023-03-01T04:34:54;-3.20;98.30
67901;DHT22;54700;51.796;10.956;2023-03-01T04:37:21;-3.20;98.20
67901;DHT22;54700;51.796;10.956;2023-03-01T04:39:49;-3.20;98.20
67901;DHT22;54700;51.796;10.956;2023-03-01T04:42:17;-3.20;98.40
67901;DHT22;54700;51.796;10.956;2023-03-01T04:44:45;-3.30;98.30
67901;DHT22;54700;51.796;10.956;2023-03-01T04:47:12;-3.30;98.10
67901;DHT22;54700;51.796;10.956;2023-03-01T04:49:39;-3.40;97.70
67901;DHT22;54700;51.796;10.956;2023-03-01T04:52:07;-3.40;97.70
67901;DHT22;54700;51.796;10.956;2023-03-01T04:54:34;-3.50;97.90
67901;DHT22;54700;51.796;10.956;2023-03-01T04:57:02;-3.50;98.20
67901;DHT22;54700;51.796;10.956;2023-03-01T04:59:29;-3.50;97.80
67901;DHT22;54700;51.796;10.956;2023-03-01T05:01:56;-3.60;98.10
67901;DHT22;54700;51.796;10.956;2023-03-01T05:04:25;-3.60;98.10
67901;DHT22;54700;51.796;10.956;2023-03-01T05:06:52;-3.70;98.10
67901;DHT22;54700;51.796;10.956;2023-03-01T05:09:21;-3.70;98.40
67901;DHT22;54700;51.796;10.956;2023-03-01T05:11:47;-3.70;98.40
67901;DHT22;54700;51.796;10.956;2023-03-01T05:14:15;-3.80;98.40
67901;DHT22;54700;51.796;10.956;2023-03-01T05:16:43;-3.80;98.60
67901;DHT22;54700;51.796;10.956;2023-03-01T05:19:10;-3.80;98.90
67901;DHT22;54700;51.796;10.956;2023-03-01T05:21:40;-3.80;98.70
67901;DHT22;54700;51.796;10.956;2023-03-01T05:24:23;-3.80;99.10
67901;DHT22;54700;51.796;10.956;2023-03-01T05:26:50;-3.80;99.10
67901;DHT22;54700;51.796;10.956;2023-03-01T05:29:18;-3.90;98.90
67901;DHT22;54700;51.796;10.956;2023-03-01T05:31:50;-3.90;99.10
67901;DHT22;54700;51.796;10.956;2023-03-01T05:34:22;-3.90;99.10
67901;DHT22;54700;51.796;10.956;2023-03-01T05:36:50;-3.90;99.20
67901;DHT22;54700;51.796;10.956;2023-03-01T05:39:19;-3.90;99.20
67901;DHT22;54700;51.796;10.956;2023-03-01T05:41:51;-3.80;99.20
67901;DHT22;54700;51.796;10.956;2023-03-01T05:44:21;-3.90;99.40
67901;DHT22;54700;51.796;10.956;2023-03-01T05:46:51;-3.80;99.10
67901;DHT22;54700;51.796;10.956;2023-03-01T05:49:26;-3.90;99.10
67901;DHT22;54700;51.796;10.956;2023-03-01T05:51:55;-3.90;99.20
67901;DHT22;54700;51.796;10.956;2023-03-01T05:54:34;-3.90;99.20
67901;DHT22;54700;51.796;10.956;2023-03-01T05:57:08;-3.90;99.20
67901;DHT22;54700;51.796;10.956;2023-03-01T06:00:05;-3.90;99.30
67901;DHT22;54700;51.796;10.956;2023-03-01T06:02:56;-3.90;99.20
67901;DHT22;54700;51.796;10.956;2023-03-01T06:05:25;-3.80;99.20
67901;DHT22;54700;51.796;10.956;2023-03-01T06:07:58;-3.90;99.40
67901;DHT22;54700;51.796;10.956;2023-03-01T06:10:31;-3.80;99.50
67901;DHT22;54700;51.796;10.956;2023-03-01T06:13:03;-3.80;99.80
67901;DHT22;54700;51.796;10.956;2023-03-01T06:15:31;-3.70;99.90
67901;DHT22;54700;51.796;10.956;2023-03-01T06:17:59;-3.70;99.70
67901;DHT22;54700;51.796;10.956;2023-03-01T06:20:38;-3.70;99.40
67901;DHT22;54700;51.796;10.956;2023-03-01T06:23:09;-3.70;99.30
67901;DHT22;54700;51.796;10.956;2023-03-01T06:25:51;-3.60;99.20
67901;DHT22;54700;51.796;10.956;2023-03-01T06:28:36;-3.60;99.00
67901;DHT22;54700;51.796;10.956;2023-03-01T06:31:09;-3.60;99.10
67901;DHT22;54700;51.796;10.956;2023-03-01T06:33:47;-3.60;99.30
67901;DHT22;54700;51.796;10.956;2023-03-01T06:36:19;-3.50;99.20
67901;DHT22;54700;51.796;10.956;2023-03-01T06:39:02;-3.40;99.30
67901;DHT22;54700;51.796;10.956;2023-03-01T06:41:30;-3.40;98.80
67901;DHT22;54700;51.796;10.956;2023-03-01T06:44:05;-3.40;99.00
67901;DHT22;54700;51.796;10.956;2023-03-01T06:46:51;-3.30;98.90
67901;DHT22;54700;51.796;10.956;2023-03-01T06:49:25;-3.20;98.70
67901;DHT22;54700;51.796;10.956;2023-03-01T06:51:54;-3.20;98.60
67901;DHT22;54700;51.796;10.956;2023-03-01T06:54:22;-3.10;98.40
67901;DHT22;54700;51.796;10.956;2023-03-01T06:57:04;-3.10;98.20
67901;DHT22;54700;51.796;10.956;2023-03-01T07:02:34;-3.00;98.80
67901;DHT22;54700;51.796;10.956;2023-03-01T07:05:35;-3.00;98.40
67901;DHT22;54700;51.796;10.956;2023-03-01T07:08:08;-2.90;98.40
67901;DHT22;54700;51.796;10.956;2023-03-01T07:10:46;-2.80;98.20
67901;DHT22;54700;51.796;10.956;2023-03-01T07:13:29;-2.80;98.20
67901;DHT22;54700;51.796;10.956;2023-03-01T07:15:59;-2.80;98.10
67901;DHT22;54700;51.796;10.956;2023-03-01T07:21:36;-2.60;98.10
67901;DHT22;54700;51.796;10.956;2023-03-01T07:24:14;-2.60;98.10
67901;DHT22;54700;51.796;10.956;2023-03-01T07:26:54;-2.50;98.10
67901;DHT22;54700;51.796;10.956;2023-03-01T07:29:43;-2.40;97.90
67901;DHT22;54700;51.796;10.956;2023-03-01T07:32:15;-2.30;97.40
67901;DHT22;54700;51.796;10.956;2023-03-01T07:34:45;-2.20;96.90
67901;DHT22;54700;51.796;10.956;2023-03-01T07:37:12;-2.10;96.10
67901;DHT22;54700;51.796;10.956;2023-03-01T07:39:42;-2.00;95.70
67901;DHT22;54700;51.796;10.956;2023-03-01T07:42:12;-1.90;95.50
67901;DHT22;54700;51.796;10.956;2023-03-01T07:44:39;-1.80;95.80
67901;DHT22;54700;51.796;10.956;2023-03-01T07:47:11;-1.70;95.30
67901;DHT22;54700;51.796;10.956;2023-03-01T07:52:29;-1.60;95.20
67901;DHT22;54700;51.796;10.956;2023-03-01T07:55:01;-1.50;95.00
67901;DHT22;54700;51.796;10.956;2023-03-01T07:57:36;-1.40;94.90
67901;DHT22;54700;51.796;10.956;2023-03-01T08:00:10;-1.40;94.40
67901;DHT22;54700;51.796;10.956;2023-03-01T08:02:38;-1.40;94.10
67901;DHT22;54700;51.796;10.956;2023-03-01T08:05:09;-1.30;93.80
67901;DHT22;54700;51.796;10.956;2023-03-01T08:07:36;-1.30;93.80
67901;DHT22;54700;51.796;10.956;2023-03-01T08:10:04;-1.20;93.50
67901;DHT22;54700;51.796;10.956;2023-03-01T08:12:35;-1.20;93.20
67901;DHT22;54700;51.796;10.956;2023-03-01T08:15:04;-1.10;92.90
67901;DHT22;54700;51.796;10.956;2023-03-01T08:17:34;-1.10;92.70
67901;DHT22;54700;51.796;10.956;2023-03-01T08:20:25;-1.00;92.10
67901;DHT22;54700;51.796;10.956;2023-03-01T08:23:01;-0.90;91.50
67901;DHT22;54700;51.796;10.956;2023-03-01T08:25:49;-0.80;91.10
67901;DHT22;54700;51.796;10.956;2023-03-01T08:28:39;-0.70;90.70
67901;DHT22;54700;51.796;10.956;2023-03-01T08:31:19;-0.70;90.40
67901;DHT22;54700;51.796;10.956;2023-03-01T08:34:03;-0.60;90.40
67901;DHT22;54700;51.796;10.956;2023-03-01T08:36:48;-0.40;88.50
67901;DHT22;54700;51.796;10.956;2023-03-01T08:39:26;-0.30;88.30
67901;DHT22;54700;51.796;10.956;2023-03-01T08:41:56;-0.20;87.90
67901;DHT22;54700;51.796;10.956;2023-03-01T08:44:28;-0.20;85.50
67901;DHT22;54700;51.796;10.956;2023-03-01T09:01:17;0.30;77.80
67901;DHT22;54700;51.796;10.956;2023-03-01T09:04:00;0.40;79.10
67901;DHT22;54700;51.796;10.956;2023-03-01T09:06:44;0.40;80.20
67901;DHT22;54700;51.796;10.956;2023-03-01T09:09:20;0.40;78.70
67901;DHT22;54700;51.796;10.956;2023-03-01T09:11:57;0.40;78.90
67901;DHT22;54700;51.796;10.956;2023-03-01T09:14:34;0.50;79.50
67901;DHT22;54700;51.796;10.956;2023-03-01T09:17:10;0.50;78.90
67901;DHT22;54700;51.796;10.956;2023-03-01T09:19:38;0.50;78.00
67901;DHT22;54700;51.796;10.956;2023-03-01T09:22:19;0.50;78.00
67901;DHT22;54700;51.796;10.956;2023-03-01T09:24:48;0.60;78.00
67901;DHT22;54700;51.796;10.956;2023-03-01T09:27:24;0.60;78.80
67901;DHT22;54700;51.796;10.956;2023-03-01T09:29:53;0.60;78.60
67901;DHT22;54700;51.796;10.956;2023-03-01T09:32:23;0.70;78.80
67901;DHT22;54700;51.796;10.956;2023-03-01T09:34:55;0.70;78.60
67901;DHT22;54700;51.796;10.956;2023-03-01T09:37:30;0.80;78.30
67901;DHT22;54700;51.796;10.956;2023-03-01T09:40:05;0.80;78.70
67901;DHT22;54700;51.796;10.956;2023-03-01T09:42:45;0.80;77.30
67901;DHT22;54700;51.796;10.956;2023-03-01T09:45:26;0.80;78.10
67901;DHT22;54700;51.796;10.956;2023-03-01T09:47:58;0.90;77.90
67901;DHT22;54700;51.796;10.956;2023-03-01T09:50:28;0.90;77.90
67901;DHT22;54700;51.796;10.956;2023-03-01T09:53:04;1.00;77.80
67901;DHT22;54700;51.796;10.956;2023-03-01T09:55:42;1.00;76.60
67901;DHT22;54700;51.796;10.956;2023-03-01T09:58:31;1.10;76.20
67901;DHT22;54700;51.796;10.956;2023-03-01T10:01:13;1.20;76.50
67901;DHT22;54700;51.796;10.956;2023-03-01T10:04:03;1.20;75.40
67901;DHT22;54700;51.796;10.956;2023-03-01T10:06:38;1.20;75.80
67901;DHT22;54700;51.796;10.956;2023-03-01T10:09:10;1.20;76.50
67901;DHT22;54700;51.796;10.956;2023-03-01T10:11:49;1.30;76.80
67901;DHT22;54700;51.796;10.956;2023-03-01T10:14:22;1.40;77.80
67901;DHT22;54700;51.796;10.956;2023-03-01T10:17:01;1.40;77.50
67901;DHT22;54700;51.796;10.956;2023-03-01T10:19:37;1.50;77.40
67901;DHT22;54700;51.796;10.956;2023-03-01T10:22:09;1.60;76.60
67901;DHT22;54700;51.796;10.956;2023-03-01T10:24:41;1.70;74.80
67901;DHT22;54700;51.796;10.956;2023-03-01T10:27:13;1.70;73.10
67901;DHT22;54700;51.796;10.956;2023-03-01T10:29:55;1.70;74.20
67901;DHT22;54700;51.796;10.956;2023-03-01T10:32:32;1.70;72.70
67901;DHT22;54700;51.796;10.956;2023-03-01T10:35:17;1.80;71.70
67901;DHT22;54700;51.796;10.956;2023-03-01T10:37:59;1.80;70.40
67901;DHT22;54700;51.796;10.956;2023-03-01T10:40:37;1.80;69.40
67901;DHT22;54700;51.796;10.956;2023-03-01T10:43:32;1.90;67.60
67901;DHT22;54700;51.796;10.956;2023-03-01T10:46:26;1.90;68.00
67901;DHT22;54700;51.796;10.956;2023-03-01T10:52:10;1.90;69.60
67901;DHT22;54700;51.796;10.956;2023-03-01T10:59:26;2.00;67.80
67901;DHT22;54700;51.796;10.956;2023-03-01T11:01:49;2.00;68.10
67901;DHT22;54700;51.796;10.956;2023-03-01T11:07:59;2.10;67.30
67901;DHT22;54700;51.796;10.956;2023-03-01T11:10:32;2.10;68.00
67901;DHT22;54700;51.796;10.956;2023-03-01T11:13:14;2.10;67.20
67901;DHT22;54700;51.796;10.956;2023-03-01T11:15:44;2.20;66.30
67901;DHT22;54700;51.796;10.956;2023-03-01T11:18:25;2.20;64.50
67901;DHT22;54700;51.796;10.956;2023-03-01T11:20:58;2.20;64.80
67901;DHT22;54700;51.796;10.956;2023-03-01T11:23:29;2.30;64.30
67901;DHT22;54700;51.796;10.956;2023-03-01T11:26:01;2.30;65.00
67901;DHT22;54700;51.796;10.956;2023-03-01T11:28:32;2.30;65.90
67901;DHT22;54700;51.796;10.956;2023-03-01T11:31:16;2.30;65.60
67901;DHT22;54700;51.796;10.956;2023-03-01T11:33:46;2.40;66.30
67901;DHT22;54700;51.796;10.956;2023-03-01T11:36:23;2.40;65.80
67901;DHT22;54700;51.796;10.956;2023-03-01T11:38:58;2.40;66.90
67901;DHT22;54700;51.796;10.956;2023-03-01T11:41:34;2.50;67.40
67901;DHT22;54700;51.796;10.956;2023-03-01T11:44:14;2.50;66.40
67901;DHT22;54700;51.796;10.956;2023-03-01T11:49:48;2.60;63.90
67901;DHT22;54700;51.796;10.956;2023-03-01T11:52:33;2.60;63.10
67901;DHT22;54700;51.796;10.956;2023-03-01T11:55:19;2.70;63.80
67901;DHT22;54700;51.796;10.956;2023-03-01T11:58:04;2.80;63.70
67901;DHT22;54700;51.796;10.956;2023-03-01T12:00:51;2.80;63.80
67901;DHT22;54700;51.796;10.956;2023-03-01T12:03:42;2.80;62.90
67901;DHT22;54700;51.796;10.956;2023-03-01T12:06:29;2.80;62.20
67901;DHT22;54700;51.796;10.956;2023-03-01T12:09:21;2.80;64.10
67901;DHT22;54700;51.796;10.956;2023-03-01T12:15:00;2.80;64.60
67901;DHT22;54700;51.796;10.956;2023-03-01T12:17:50;2.80;65.60
67901;DHT22;54700;51.796;10.956;2023-03-01T12:20:31;2.80;65.60
67901;DHT22;54700;51.796;10.956;2023-03-01T12:23:13;2.80;66.80
67901;DHT22;54700;51.796;10.956;2023-03-01T12:25:53;2.90;66.30
67901;DHT22;54700;51.796;10.956;2023-03-01T12:28:50;2.90;66.10
67901;DHT22;54700;51.796;10.956;2023-03-01T12:31:46;3.00;66.30
67901;DHT22;54700;51.796;10.956;2023-03-01T12:37:42;3.10;62.50
67901;DHT22;54700;51.796;10.956;2023-03-01T12:40:27;3.10;61.70
67901;DHT22;54700;51.796;10.956;2023-03-01T12:43:04;3.20;61.00
67901;DHT22;54700;51.796;10.956;2023-03-01T12:45:53;3.20;60.10
67901;DHT22;54700;51.796;10.956;2023-03-01T12:48:33;3.30;58.60
67901;DHT22;54700;51.796;10.956;2023-03-01T12:51:08;3.30;58.40
67901;DHT22;54700;51.796;10.956;2023-03-01T12:53:44;3.30;59.50
67901;DHT22;54700;51.796;10.956;2023-03-01T12:56:17;3.30;59.00
67901;DHT22;54700;51.796;10.956;2023-03-01T12:58:51;3.30;57.20
67901;DHT22;54700;51.796;10.956;2023-03-01T13:01:36;3.30;56.30
67901;DHT22;54700;51.796;10.956;2023-03-01T13:04:20;3.40;55.50
67901;DHT22;54700;51.796;10.956;2023-03-01T13:06:58;3.40;56.00
67901;DHT22;54700;51.796;10.956;2023-03-01T13:09:46;3.50;57.30
67901;DHT22;54700;51.796;10.956;2023-03-01T13:15:30;3.40;55.50
67901;DHT22;54700;51.796;10.956;2023-03-01T13:18:33;3.40;56.00
67901;DHT22;54700;51.796;10.956;2023-03-01T13:21:04;3.50;56.70
67901;DHT22;54700;51.796;10.956;2023-03-01T13:23:39;3.60;57.50
67901;DHT22;54700;51.796;10.956;2023-03-01T13:26:18;3.60;57.80
67901;DHT22;54700;51.796;10.956;2023-03-01T13:28:58;3.60;58.20
67901;DHT22;54700;51.796;10.956;2023-03-01T13:37:36;3.70;60.10
67901;DHT22;54700;51.796;10.956;2023-03-01T13:43:31;3.70;59.90
67901;DHT22;54700;51.796;10.956;2023-03-01T13:46:07;3.70;60.50
67901;DHT22;54700;51.796;10.956;2023-03-01T13:48:40;3.70;59.50
67901;DHT22;54700;51.796;10.956;2023-03-01T13:51:30;3.70;58.60
67901;DHT22;54700;51.796;10.956;2023-03-01T13:53:58;3.80;58.60
67901;DHT22;54700;51.796;10.956;2023-03-01T13:56:27;3.80;56.20
67901;DHT22;54700;51.796;10.956;2023-03-01T13:59:05;3.90;56.00
67901;DHT22;54700;51.796;10.956;2023-03-01T14:01:42;3.90;55.40
67901;DHT22;54700;51.796;10.956;2023-03-01T14:04:20;3.90;55.30
67901;DHT22;54700;51.796;10.956;2023-03-01T14:06:51;3.90;56.20
67901;DHT22;54700;51.796;10.956;2023-03-01T14:09:18;3.90;57.10
67901;DHT22;54700;51.796;10.956;2023-03-01T14:11:52;3.90;57.10
67901;DHT22;54700;51.796;10.956;2023-03-01T14:17:28;3.90;57.10
67901;DHT22;54700;51.796;10.956;2023-03-01T14:20:08;3.90;57.10
67901;DHT22;54700;51.796;10.956;2023-03-01T14:22:43;3.90;57.30
67901;DHT22;54700;51.796;10.956;2023-03-01T14:28:12;3.90;55.30
67901;DHT22;54700;51.796;10.956;2023-03-01T14:30:43;3.90;55.80
67901;DHT22;54700;51.796;10.956;2023-03-01T14:33:18;4.00;55.90
67901;DHT22;54700;51.796;10.956;2023-03-01T14:35:54;4.00;56.20
67901;DHT22;54700;51.796;10.956;2023-03-01T14:38:29;4.10;55.50
67901;DHT22;54700;51.796;10.956;2023-03-01T14:41:02;4.10;55.60
67901;DHT22;54700;51.796;10.956;2023-03-01T14:43:43;4.10;54.90
67901;DHT22;54700;51.796;10.956;2023-03-01T14:46:17;4.10;55.60
67901;DHT22;54700;51.796;10.956;2023-03-01T14:48:48;4.10;56.10
67901;DHT22;54700;51.796;10.956;2023-03-01T14:51:17;4.10;56.00
67901;DHT22;54700;51.796;10.956;2023-03-01T14:53:45;4.10;56.40
67901;DHT22;54700;51.796;10.956;2023-03-01T14:56:14;4.10;56.30
67901;DHT22;54700;51.796;10.956;2023-03-01T14:58:45;4.10;56.60
67901;DHT22;54700;51.796;10.956;2023-03-01T15:01:13;4.10;56.60
67901;DHT22;54700;51.796;10.956;2023-03-01T15:03:45;4.10;56.70
67901;DHT22;54700;51.796;10.956;2023-03-01T15:06:17;4.10;57.40
67901;DHT22;54700;51.796;10.956;2023-03-01T15:08:47;4.10;57.10
67901;DHT22;54700;51.796;10.956;2023-03-01T15:11:20;4.10;56.80
67901;DHT22;54700;51.796;10.956;2023-03-01T15:13:51;4.10;57.10
67901;DHT22;54700;51.796;10.956;2023-03-01T15:16:19;4.10;56.90
67901;DHT22;54700;51.796;10.956;2023-03-01T15:18:50;4.10;57.30
67901;DHT22;54700;51.796;10.956;2023-03-01T15:21:21;4.10;56.80
67901;DHT22;54700;51.796;10.956;2023-03-01T15:23:52;4.10;57.10
67901;DHT22;54700;51.796;10.956;2023-03-01T15:26:22;4.10;56.40
67901;DHT22;54700;51.796;10.956;2023-03-01T15:28:52;4.10;56.20
67901;DHT22;54700;51.796;10.956;2023-03-01T15:31:24;4.10;55.70
67901;DHT22;54700;51.796;10.956;2023-03-01T15:33:58;4.00;55.40
67901;DHT22;54700;51.796;10.956;2023-03-01T15:36:42;4.10;54.90
67901;DHT22;54700;51.796;10.956;2023-03-01T15:42:02;4.00;55.10
67901;DHT22;54700;51.796;10.956;2023-03-01T15:44:34;4.00;56.20
67901;DHT22;54700;51.796;10.956;2023-03-01T15:47:03;4.00;56.30
67901;DHT22;54700;51.796;10.956;2023-03-01T15:49:35;3.90;56.40
67901;DHT22;54700;51.796;10.956;2023-03-01T15:52:06;3.90;56.70
67901;DHT22;54700;51.796;10.956;2023-03-01T15:54:40;3.80;56.90
67901;DHT22;54700;51.796;10.956;2023-03-01T15:57:08;3.80;57.20
67901;DHT22;54700;51.796;10.956;2023-03-01T15:59:39;3.80;57.20
67901;DHT22;54700;51.796;10.956;2023-03-01T16:02:08;3.70;57.50
67901;DHT22;54700;51.796;10.956;2023-03-01T16:04:36;3.70;57.70
67901;DHT22;54700;51.796;10.956;2023-03-01T16:07:02;3.70;57.60
67901;DHT22;54700;51.796;10.956;2023-03-01T16:09:29;3.70;58.00
67901;DHT22;54700;51.796;10.956;2023-03-01T16:11:58;3.70;57.90
67901;DHT22;54700;51.796;10.956;2023-03-01T16:14:28;3.60;58.40
67901;DHT22;54700;51.796;10.956;2023-03-01T16:16:55;3.60;58.50
67901;DHT22;54700;51.796;10.956;2023-03-01T16:19:22;3.50;58.60
67901;DHT22;54700;51.796;10.956;2023-03-01T16:21:49;3.50;58.60
67901;DHT22;54700;51.796;10.956;2023-03-01T16:24:19;3.40;58.80
67901;DHT22;54700;51.796;10.956;2023-03-01T16:26:46;3.40;59.30
67901;DHT22;54700;51.796;10.956;2023-03-01T16:29:20;3.30;59.80
67901;DHT22;54700;51.796;10.956;2023-03-01T16:31:48;3.20;60.40
67901;DHT22;54700;51.796;10.956;2023-03-01T16:34:15;3.10;60.30
67901;DHT22;54700;51.796;10.956;2023-03-01T16:36:42;3.00;61.50
67901;DHT22;54700;51.796;10.956;2023-03-01T16:39:09;3.00;61.20
67901;DHT22;54700;51.796;10.956;2023-03-01T16:41:36;2.90;61.70
67901;DHT22;54700;51.796;10.956;2023-03-01T16:44:03;2.80;62.00
67901;DHT22;54700;51.796;10.956;2023-03-01T16:46:31;2.80;62.70
67901;DHT22;54700;51.796;10.956;2023-03-01T16:48:58;2.70;63.10
67901;DHT22;54700;51.796;10.956;2023-03-01T16:51:34;2.60;63.80
67901;DHT22;54700;51.796;10.956;2023-03-01T16:54:01;2.40;64.60
67901;DHT22;54700;51.796;10.956;2023-03-01T16:56:29;2.30;65.70
67901;DHT22;54700;51.796;10.956;2023-03-01T16:58:59;2.20;66.80
67901;DHT22;54700;51.796;10.956;2023-03-01T17:01:26;2.00;68.00
67901;DHT22;54700;51.796;10.956;2023-03-01T17:04:04;1.90;69.60
67901;DHT22;54700;51.796;10.956;2023-03-01T17:06:33;1.80;71.40